sensor_id;sensor_type;location;lat;lon;timestamp;pressure;altitude;pressure_sealevel;temperature;humidity
18022;BME280;9136;48.822;7.966;2023-08-30T00:00:50;99613.75;;;14.22;100.00
18022;BME280;9136;48.822;7.966;2023-08-30T00:04:15;99622.63;;;14.21;100.00
18022;BME280;9136;48.822;7.966;2023-08-30T00:07:55;99612.81;;;14.08;100.00
18022;BME280;9136;48.822;7.966;2023-08-30T00:11:27;99632.66;;;14.30;100.00
18022;BME280;9136;48.822;7.966;2023-08-30T00:20:06;99612.19;;;14.18;100.00
18022;BME280;9136;48.822;7.966;2023-08-30T00:22:49;99607.47;;;14.09;100.00
18022;BME280;9136;48.822;7.966;2023-08-30T00:34:18;99626.69;;;14.27;100.00
18022;BME280;9136;48.822;7.966;2023-08-30T01:45:21;99584.78;;;14.05;100.00
18022;BME280;9136;48.822;7.966;2023-08-30T03:01:07;99573.66;;;14.00;100.00
18022;BME280;9136;48.822;7.966;2023-08-30T03:32:35;99564.13;;;13.82;100.00
18022;BME280;9136;48.822;7.966;2023-08-30T04:25:24;99548.41;;;13.33;100.00
18022;BME280;9136;48.822;7.966;2023-08-30T04:33:17;99563.94;;;13.37;100.00
18022;BME280;9136;48.822;7.966;2023-08-30T04:59:51;99586.53;;;13.43;100.00
18022;BME280;9136;48.822;7.966;2023-08-30T05:03:32;99566.91;;;13.31;100.00
18022;BME280;9136;48.822;7.966;2023-08-30T05:07:13;99582.69;;;13.49;100.00
18022;BME280;9136;48.822;7.966;2023-08-30T05:19:10;99562.00;;;13.41;100.00
18022;BME280;9136;48.822;7.966;2023-08-30T05:22:42;99561.31;;;13.37;100.00
18022;BME280;9136;48.822;7.966;2023-08-30T05:33:25;99583.53;;;13.49;100.00
18022;BME280;9136;48.822;7.966;2023-08-30T05:44:14;99569.66;;;13.45;100.00
18022;BME280;9136;48.822;7.966;2023-08-30T05:48:16;99573.06;;;13.48;100.00
18022;BME280;9136;48.822;7.966;2023-08-30T05:51:55;99573.22;;;13.60;100.00
18022;BME280;9136;48.822;7.966;2023-08-30T05:55:19;99585.41;;;13.79;100.00
18022;BME280;9136;48.822;7.966;2023-08-30T06:17:47;99575.97;;;13.90;100.00
18022;BME280;9136;48.822;7.966;2023-08-30T06:20:57;99565.84;;;13.83;100.00
18022;BME280;9136;48.822;7.966;2023-08-30T06:24:02;99561.97;;;13.88;100.00
18022;BME280;9136;48.822;7.966;2023-08-30T06:26:59;99566.16;;;13.92;100.00
18022;BME280;9136;48.822;7.966;2023-08-30T06:33:44;99571.06;;;14.14;100.00
18022;BME280;9136;48.822;7.966;2023-08-30T06:37:34;99575.06;;;14.21;100.00
18022;BME280;9136;48.822;7.966;2023-08-30T06:46:35;99576.13;;;14.49;100.00
18022;BME280;9136;48.822;7.966;2023-08-30T06:48:31;99595.78;;;14.59;100.00
18022;BME280;9136;48.822;7.966;2023-08-30T07:19:04;99561.06;;;15.22;100.00
18022;BME280;9136;48.822;7.966;2023-08-30T09:06:55;99585.56;;;17.88;100.00
18022;BME280;9136;48.822;7.966;2023-08-30T09:16:22;99609.28;;;18.15;100.00
18022;BME280;9136;48.822;7.966;2023-08-30T09:19:00;99614.78;;;18.24;100.00
18022;BME280;9136;48.822;7.966;2023-08-30T09:22:38;99598.00;;;18.11;100.00
18022;BME280;9136;48.822;7.966;2023-08-30T09:26:28;99617.81;;;18.07;100.00
18022;BME280;9136;48.822;7.966;2023-08-30T09:34:44;99583.75;;;18.71;100.00
18022;BME280;9136;48.822;7.966;2023-08-30T09:37:55;99597.84;;;18.84;100.00
18022;BME280;9136;48.822;7.966;2023-08-30T09:41:39;99591.38;;;18.65;100.00
18022;BME280;9136;48.822;7.966;2023-08-30T09:48:00;99574.34;;;18.78;100.00
18022;BME280;9136;48.822;7.966;2023-08-30T09:50:53;99571.94;;;18.75;100.00
18022;BME280;9136;48.822;7.966;2023-08-30T09:53:44;99571.56;;;18.34;100.00
18022;BME280;9136;48.822;7.966;2023-08-30T09:56:33;99589.47;;;18.78;100.00
18022;BME280;9136;48.822;7.966;2023-08-30T09:59:24;99581.28;;;18.92;100.00
18022;BME280;9136;48.822;7.966;2023-08-30T10:02:13;99577.19;;;18.64;100.00
18022;BME280;9136;48.822;7.966;2023-08-30T10:05:04;99573.66;;;18.99;100.00
18022;BME280;9136;48.822;7.966;2023-08-30T10:07:53;99599.47;;;19.32;100.00
18022;BME280;9136;48.822;7.966;2023-08-30T10:10:43;99573.56;;;19.23;100.00
18022;BME280;9136;48.822;7.966;2023-08-30T10:13:33;99572.09;;;19.75;100.00
18022;BME280;9136;48.822;7.966;2023-08-30T10:16:26;99572.31;;;19.49;100.00
18022;BME280;9136;48.822;7.966;2023-08-30T10:19:14;99566.19;;;19.60;100.00
18022;BME280;9136;48.822;7.966;2023-08-30T10:22:05;99557.94;;;19.63;100.00
18022;BME280;9136;48.822;7.966;2023-08-30T10:24:58;99569.78;;;20.13;100.00
18022;BME280;9136;48.822;7.966;2023-08-30T10:27:49;99559.75;;;20.06;100.00
18022;BME280;9136;48.822;7.966;2023-08-30T10:30:38;99551.94;;;19.93;100.00
18022;BME280;9136;48.822;7.966;2023-08-30T10:33:29;99541.78;;;19.76;100.00
18022;BME280;9136;48.822;7.966;2023-08-30T10:36:21;99541.09;;;20.06;100.00
18022;BME280;9136;48.822;7.966;2023-08-30T10:39:12;99528.91;;;20.56;100.00
18022;BME280;9136;48.822;7.966;2023-08-30T10:42:00;99539.22;;;20.91;100.00
18022;BME280;9136;48.822;7.966;2023-08-30T10:44:49;99517.97;;;21.20;100.00
18022;BME280;9136;48.822;7.966;2023-08-30T10:47:38;99522.72;;;21.37;92.72
18022;BME280;9136;48.822;7.966;2023-08-30T10:50:29;99518.91;;;21.40;95.65
18022;BME280;9136;48.822;7.966;2023-08-30T10:53:29;99521.91;;;21.16;96.14
18022;BME280;9136;48.822;7.966;2023-08-30T10:56:18;99523.84;;;22.14;86.12
18022;BME280;9136;48.822;7.966;2023-08-30T10:59:15;99518.56;;;23.27;72.26
18022;BME280;9136;48.822;7.966;2023-08-30T12:33:17;99437.59;;;29.31;37.21
18022;BME280;9136;48.822;7.966;2023-08-30T12:36:05;99424.28;;;29.87;37.01
18022;BME280;9136;48.822;7.966;2023-08-30T12:39:43;99428.09;;;28.46;38.81
18022;BME280;9136;48.822;7.966;2023-08-30T12:43:00;99440.31;;;27.12;40.19
18022;BME280;9136;48.822;7.966;2023-08-30T12:46:08;99435.44;;;29.05;36.25
18022;BME280;9136;48.822;7.966;2023-08-30T13:38:08;99407.72;;;23.46;52.39
18022;BME280;9136;48.822;7.966;2023-08-30T13:40:58;99386.25;;;23.28;52.90
18022;BME280;9136;48.822;7.966;2023-08-30T13:43:46;99380.44;;;23.50;52.61
18022;BME280;9136;48.822;7.966;2023-08-30T13:46:34;99388.28;;;24.83;49.24
18022;BME280;9136;48.822;7.966;2023-08-30T13:49:21;99383.78;;;25.66;46.50
18022;BME280;9136;48.822;7.966;2023-08-30T13:52:09;99381.16;;;24.40;49.29
18022;BME280;9136;48.822;7.966;2023-08-30T13:54:59;99400.41;;;24.09;48.63
18022;BME280;9136;48.822;7.966;2023-08-30T13:57:46;99409.97;;;23.40;49.92
18022;BME280;9136;48.822;7.966;2023-08-30T14:00:34;99384.44;;;23.01;52.04
18022;BME280;9136;48.822;7.966;2023-08-30T14:03:22;99400.50;;;23.99;50.97
18022;BME280;9136;48.822;7.966;2023-08-30T14:06:11;99391.16;;;24.04;50.68
18022;BME280;9136;48.822;7.966;2023-08-30T14:08:59;99399.50;;;23.83;51.04
18022;BME280;9136;48.822;7.966;2023-08-30T14:12:32;99410.31;;;23.10;51.39
18022;BME280;9136;48.822;7.966;2023-08-30T14:15:52;99398.09;;;23.07;51.09
18022;BME280;9136;48.822;7.966;2023-08-30T14:18:40;99378.97;;;23.56;55.88
18022;BME280;9136;48.822;7.966;2023-08-30T14:21:47;99392.59;;;24.76;51.85
18022;BME280;9136;48.822;7.966;2023-08-30T14:24:37;99389.63;;;25.21;50.96
18022;BME280;9136;48.822;7.966;2023-08-30T14:31:09;99389.00;;;25.52;48.77
18022;BME280;9136;48.822;7.966;2023-08-30T14:33:58;99382.44;;;25.46;49.90
18022;BME280;9136;48.822;7.966;2023-08-30T14:36:48;99387.59;;;25.23;50.18
18022;BME280;9136;48.822;7.966;2023-08-30T14:39:36;99385.44;;;25.35;48.00
18022;BME280;9136;48.822;7.966;2023-08-30T14:42:23;99381.41;;;24.80;50.34
18022;BME280;9136;48.822;7.966;2023-08-30T14:45:11;99381.59;;;24.95;50.23
18022;BME280;9136;48.822;7.966;2023-08-30T14:48:00;99378.56;;;24.98;51.81
18022;BME280;9136;48.822;7.966;2023-08-30T14:55:14;99368.81;;;24.89;50.18
18022;BME280;9136;48.822;7.966;2023-08-30T15:09:21;99370.66;;;23.59;51.28
18022;BME280;9136;48.822;7.966;2023-08-30T15:12:13;99364.22;;;23.69;51.48
18022;BME280;9136;48.822;7.966;2023-08-30T16:03:39;99360.69;;;22.51;50.17
18022;BME280;9136;48.822;7.966;2023-08-30T16:07:14;99367.03;;;22.77;49.75
18022;BME280;9136;48.822;7.966;2023-08-30T16:10:18;99367.81;;;22.70;49.63
18022;BME280;9136;48.822;7.966;2023-08-30T16:14:14;99378.88;;;22.75;50.02
18022;BME280;9136;48.822;7.966;2023-08-30T16:16:57;99379.81;;;22.56;50.62
18022;BME280;9136;48.822;7.966;2023-08-30T16:19:49;99358.97;;;22.03;52.42
18022;BME280;9136;48.822;7.966;2023-08-30T16:22:37;99377.31;;;21.59;54.67
18022;BME280;9136;48.822;7.966;2023-08-30T16:29:42;99359.78;;;20.97;58.94
18022;BME280;9136;48.822;7.966;2023-08-30T16:33:14;99372.97;;;20.89;60.75
18022;BME280;9136;48.822;7.966;2023-08-30T17:17:59;99390.63;;;19.98;71.47
18022;BME280;9136;48.822;7.966;2023-08-30T17:20:47;99379.31;;;19.85;73.90
18022;BME280;9136;48.822;7.966;2023-08-30T17:23:37;99400.38;;;19.88;72.88
18022;BME280;9136;48.822;7.966;2023-08-30T17:26:25;99367.38;;;19.68;75.04
18022;BME280;9136;48.822;7.966;2023-08-30T17:29:12;99390.59;;;19.78;72.68
18022;BME280;9136;48.822;7.966;2023-08-30T17:32:01;99389.06;;;19.75;73.56
18022;BME280;9136;48.822;7.966;2023-08-30T17:34:53;99377.75;;;19.62;71.65
18022;BME280;9136;48.822;7.966;2023-08-30T17:46:50;99396.53;;;19.60;73.22
18022;BME280;9136;48.822;7.966;2023-08-30T18:29:29;99498.16;;;18.77;100.00
18022;BME280;9136;48.822;7.966;2023-08-30T18:36:11;99513.75;;;18.71;100.00
18022;BME280;9136;48.822;7.966;2023-08-30T18:39:44;99512.72;;;18.60;100.00
